Time;durP1;ratioP1;P1;durP2;ratioP2;P2;SDS_P1;SDS_P2;PMS_P1;PMS_P2;Temp;Humidity;BMP_temperature;BMP_pressure;BME280_temperature;BME280_humidity;BME280_pressure;Samples;Min_cycle;Max_cycle;Signal;HPM_P1;HPM_P2
2022/06/05 00:01:57;;;;;;;10.20;5.95;;;;;;;18.67;100.00;98982.34;5106633;28;20088;-83
2022/06/05 00:04:35;;;;;;;7.82;6.28;;;;;;;18.60;100.00;98984.38;5104598;28;20131;-83
2022/06/05 00:07:09;;;;;;;6.13;5.32;;;;;;;18.52;100.00;98977.31;5104244;28;20047;-83
2022/06/05 00:09:43;;;;;;;7.88;5.75;;;;;;;18.50;100.00;98961.06;5106899;28;20058;-82
2022/06/05 00:12:12;;;;;;;9.40;5.75;;;;;;;18.58;100.00;98970.84;5098658;28;20051;-82
2022/06/05 00:14:39;;;;;;;10.70;5.67;;;;;;;18.51;100.00;98970.97;5110245;28;20055;-83
2022/06/05 00:17:09;;;;;;;6.72;5.30;;;;;;;18.36;100.00;98940.38;5109490;28;20071;-83
2022/06/05 00:19:37;;;;;;;7.18;6.05;;;;;;;18.50;100.00;98962.94;5111502;28;20361;-82
2022/06/05 00:22:05;;;;;;;8.45;5.90;;;;;;;18.56;100.00;98956.47;5109450;28;20556;-83
2022/06/05 00:24:33;;;;;;;6.10;5.50;;;;;;;18.43;100.00;98931.97;5104314;28;20388;-83
2022/06/05 00:27:06;;;;;;;9.43;6.20;;;;;;;18.42;100.00;98947.66;5106277;28;20050;-83
2022/06/05 00:29:45;;;;;;;8.05;6.30;;;;;;;18.28;100.00;98924.22;5096210;28;20055;-84
2022/06/05 00:32:19;;;;;;;7.65;5.93;;;;;;;18.37;100.00;98940.13;5106606;28;20087;-82
2022/06/05 00:34:45;;;;;;;8.18;5.90;;;;;;;18.34;100.00;98926.00;5107619;28;20048;-82
2022/06/05 00:37:24;;;;;;;6.57;5.90;;;;;;;18.40;100.00;98939.63;5109848;28;20046;-83
2022/06/05 00:40:07;;;;;;;5.95;5.28;;;;;;;18.29;100.00;98921.25;5102516;28;20040;-83
2022/06/05 00:42:35;;;;;;;9.57;6.22;;;;;;;18.22;100.00;98928.78;5102760;28;20048;-83
2022/06/05 00:45:07;;;;;;;8.82;5.68;;;;;;;18.15;100.00;98936.31;5105938;28;21507;-83
2022/06/05 00:47:36;;;;;;;9.25;6.30;;;;;;;18.26;100.00;98943.72;5107995;28;20043;-82
2022/06/05 00:50:09;;;;;;;7.32;6.07;;;;;;;18.30;100.00;98944.91;5101240;28;20056;-82
2022/06/05 00:52:38;;;;;;;8.68;6.00;;;;;;;18.33;100.00;98957.34;5109969;28;20606;-82
2022/06/05 00:55:07;;;;;;;6.78;6.07;;;;;;;18.22;100.00;98953.53;5103554;28;20396;-83
2022/06/05 00:57:36;;;;;;;11.35;6.05;;;;;;;18.25;100.00;98952.22;5105455;28;20391;-83
2022/06/05 01:00:10;;;;;;;8.38;6.70;;;;;;;18.19;100.00;98937.50;5113450;28;20048;-83
2022/06/05 01:02:40;;;;;;;10.85;6.40;;;;;;;18.27;100.00;98961.91;5122285;28;20051;-82
2022/06/05 01:05:09;;;;;;;6.53;5.72;;;;;;;18.26;100.00;98982.25;5114798;28;20050;-82
2022/06/05 01:07:35;;;;;;;8.32;6.13;;;;;;;18.31;100.00;98973.28;5109095;28;20047;-82
2022/06/05 01:10:02;;;;;;;6.72;6.03;;;;;;;18.29;100.00;98968.03;5115305;28;20052;-83
2022/06/05 01:12:39;;;;;;;8.57;6.60;;;;;;;18.28;100.00;98982.84;5120326;28;20059;-83
2022/06/05 01:15:18;;;;;;;9.68;5.70;;;;;;;18.24;100.00;98975.31;5114387;28;20047;-83
2022/06/05 01:17:53;;;;;;;7.53;6.32;;;;;;;18.26;100.00;98973.16;5111214;28;20052;-84
2022/06/05 01:20:41;;;;;;;9.88;6.82;;;;;;;18.26;100.00;98963.00;5106097;28;20047;-83
2022/06/05 01:23:41;;;;;;;7.22;6.38;;;;;;;18.27;100.00;98974.84;5102368;28;23412;-83
2022/06/05 01:26:20;;;;;;;9.03;6.93;;;;;;;18.16;100.00;98971.00;5097082;28;20047;-84
2022/06/05 01:28:55;;;;;;;7.95;6.45;;;;;;;18.27;100.00;98988.59;5113499;28;20052;-83
2022/06/05 01:31:28;;;;;;;8.75;5.95;;;;;;;18.24;100.00;98984.38;5104313;28;20078;-83
2022/06/05 01:34:01;;;;;;;6.50;5.88;;;;;;;18.13;100.00;98968.75;5111625;28;20039;-84
2022/06/05 01:36:35;;;;;;;8.55;6.05;;;;;;;18.28;100.00;98995.78;5110256;28;20052;-83
2022/06/05 01:39:07;;;;;;;7.75;5.95;;;;;;;18.07;100.00;98980.69;5100232;28;20430;-83
2022/06/05 01:41:40;;;;;;;7.78;6.38;;;;;;;18.09;100.00;99008.78;5104751;28;20410;-82
2022/06/05 01:44:12;;;;;;;9.80;6.55;;;;;;;17.99;100.00;98976.38;5113188;28;20142;-83
2022/06/05 01:46:39;;;;;;;9.23;6.03;;;;;;;18.11;100.00;98977.22;5112284;28;20073;-83
2022/06/05 01:49:14;;;;;;;7.20;5.82;;;;;;;17.98;100.00;98972.78;5114304;28;20478;-83
2022/06/05 01:51:49;;;;;;;10.68;6.20;;;;;;;18.08;100.00;98982.34;5100302;28;20035;-83
2022/06/05 01:54:22;;;;;;;11.65;7.22;;;;;;;18.00;100.00;98992.63;5104060;28;20410;-83
2022/06/05 01:56:53;;;;;;;8.00;5.63;;;;;;;17.97;100.00;98993.09;5107765;28;20518;-83
2022/06/05 01:59:26;;;;;;;6.90;5.72;;;;;;;17.87;100.00;98990.09;5108140;28;20048;-83
2022/06/05 02:01:58;;;;;;;8.65;6.03;;;;;;;17.84;100.00;98972.16;5109014;28;20039;-83
2022/06/05 02:04:32;;;;;;;8.23;6.38;;;;;;;17.73;100.00;98955.63;5093141;28;20044;-84
2022/06/05 02:07:04;;;;;;;7.03;6.32;;;;;;;17.81;100.00;98960.78;5105948;28;20142;-83
2022/06/05 02:09:36;;;;;;;8.50;6.53;;;;;;;17.78;100.00;98945.59;5102224;28;20051;-82
2022/06/05 02:12:06;;;;;;;7.65;6.85;;;;;;;17.74;100.00;98921.56;5110905;28;20059;-83
2022/06/05 02:14:32;;;;;;;6.63;6.03;;;;;;;17.78;100.00;98925.50;5097870;28;20418;-83
2022/06/05 02:17:00;;;;;;;7.47;6.07;;;;;;;17.80;100.00;98926.13;5111234;28;20044;-83
2022/06/05 02:19:27;;;;;;;6.60;6.00;;;;;;;17.86;100.00;98909.50;5105194;28;20059;-83
2022/06/05 02:22:00;;;;;;;6.90;5.68;;;;;;;17.78;100.00;98893.38;5111588;28;20044;-83
2022/06/05 02:24:30;;;;;;;7.88;5.65;;;;;;;17.69;100.00;98892.88;5107960;28;20459;-83
2022/06/05 02:26:59;;;;;;;6.30;5.43;;;;;;;17.58;100.00;98855.22;5108858;28;20382;-83
2022/06/05 02:29:28;;;;;;;7.25;6.25;;;;;;;17.68;100.00;98858.22;5109129;28;20135;-84
2022/06/05 02:32:10;;;;;;;7.47;5.88;;;;;;;17.71;100.00;98867.06;5103190;28;20039;-82
2022/06/05 02:34:54;;;;;;;6.95;6.18;;;;;;;17.68;100.00;98847.22;5091653;28;20047;-83
2022/06/05 02:37:34;;;;;;;9.98;6.38;;;;;;;17.70;100.00;98838.72;5103868;28;20048;-82
2022/06/05 02:40:05;;;;;;;;;;;;;;;17.81;100.00;98821.41;5109891;28;20131;-84
2022/06/05 02:42:36;;;;;;;8.05;5.75;;;;;;;17.71;100.00;98803.84;5105950;28;19920;-83
2022/06/05 02:45:15;;;;;;;8.15;6.55;;;;;;;17.71;100.00;98785.44;5094123;28;20040;-83
2022/06/05 02:47:48;;;;;;;8.03;6.30;;;;;;;17.72;100.00;98789.00;5100616;28;20566;-83
2022/06/05 02:50:20;;;;;;;9.70;5.43;;;;;;;17.53;100.00;98753.41;5101760;28;20042;-83
2022/06/05 02:52:47;;;;;;;10.95;8.27;;;;;;;17.76;100.00;98768.22;5106011;28;20047;-83
2022/06/05 02:55:17;;;;;;;9.45;6.78;;;;;;;17.71;100.00;98766.19;5111700;28;20088;-84
2022/06/05 02:57:44;;;;;;;11.07;6.00;;;;;;;17.58;100.00;98759.00;5105846;28;20051;-83
2022/06/05 03:00:15;;;;;;;7.93;6.22;;;;;;;17.65;100.00;98765.22;5100810;28;20064;-83
2022/06/05 03:05:26;;;;;;;8.15;6.45;;;;;;;17.52;100.00;98779.22;5094625;28;20125;-84
2022/06/05 03:07:53;;;;;;;7.25;6.35;;;;;;;17.52;100.00;98776.47;5109641;28;20406;-83
2022/06/05 03:10:19;;;;;;;10.25;6.53;;;;;;;17.42;100.00;98755.09;5111280;28;20097;-83
2022/06/05 03:12:46;;;;;;;7.47;6.45;;;;;;;17.43;100.00;98748.53;5108698;28;20074;-83
2022/06/05 03:15:15;;;;;;;8.73;6.75;;;;;;;17.41;100.00;98766.34;5108421;28;20052;-83
2022/06/05 03:17:42;;;;;;;8.13;6.82;;;;;;;17.36;100.00;98749.72;5104505;28;20047;-83
2022/06/05 03:20:10;;;;;;;8.05;6.35;;;;;;;17.60;100.00;98773.38;5103019;28;20055;-82
2022/06/05 03:22:37;;;;;;;6.28;5.65;;;;;;;17.69;100.00;98769.19;5109158;28;20047;-82
2022/06/05 03:25:04;;;;;;;9.63;7.18;;;;;;;17.66;100.00;98750.41;5109783;28;20411;-82
2022/06/05 03:27:31;;;;;;;6.85;6.15;;;;;;;17.76;100.00;98765.47;5101089;28;20468;-82
2022/06/05 03:29:58;;;;;;;7.05;6.03;;;;;;;17.72;100.00;98747.78;5099378;28;20490;-82
2022/06/05 03:32:27;;;;;;;6.10;5.50;;;;;;;17.87;100.00;98770.13;5101870;28;20126;-83
2022/06/05 03:34:54;;;;;;;6.78;5.47;;;;;;;17.91;100.00;98765.00;5098586;28;20044;-83
2022/06/05 03:37:20;;;;;;;10.20;5.65;;;;;;;17.86;100.00;98761.00;5108261;28;20078;-83
2022/06/05 03:39:47;;;;;;;6.57;5.60;;;;;;;17.88;100.00;98769.00;5101872;28;20396;-83
2022/06/05 03:42:14;;;;;;;9.40;5.55;;;;;;;17.87;100.00;98759.94;5106009;28;20407;-83
2022/06/05 03:44:42;;;;;;;6.35;5.63;;;;;;;17.83;100.00;98758.75;5096236;28;20055;-82
2022/06/05 03:47:10;;;;;;;6.47;5.40;;;;;;;17.91;100.00;98757.56;5104714;28;20055;-82
2022/06/05 03:49:39;;;;;;;6.63;5.82;;;;;;;17.87;100.00;98770.13;5111018;28;20056;-83
2022/06/05 03:52:06;;;;;;;6.10;5.50;;;;;;;17.79;100.00;98768.53;5110844;28;20047;-83
2022/06/05 03:54:34;;;;;;;7.72;5.50;;;;;;;17.73;100.00;98760.44;5110730;28;20062;-82
2022/06/05 03:57:01;;;;;;;6.53;5.40;;;;;;;17.86;100.00;98771.19;5106841;28;20105;-83
2022/06/05 03:59:28;;;;;;;5.45;4.95;;;;;;;17.81;100.00;98779.31;5110600;28;20044;-82
2022/06/05 04:01:54;;;;;;;6.85;5.47;;;;;;;17.90;100.00;98799.91;5104980;28;20048;-82
2022/06/05 04:04:21;;;;;;;6.47;5.57;;;;;;;17.79;100.00;98809.78;5108705;28;20483;-82
2022/06/05 04:06:49;;;;;;;8.05;5.28;;;;;;;17.75;100.00;98814.13;5101844;28;20047;-82
2022/06/05 04:09:16;;;;;;;7.85;5.65;;;;;;;17.91;100.00;98833.72;5102218;28;20415;-81
2022/06/05 04:11:43;;;;;;;6.38;5.68;;;;;;;17.78;100.00;98832.88;5108973;28;20138;-82
2022/06/05 04:14:10;;;;;;;9.32;5.40;;;;;;;17.77;100.00;98864.19;5109585;28;20050;-80
2022/06/05 04:16:40;;;;;;;6.53;5.63;;;;;;;17.65;100.00;98908.16;5112555;28;20414;-81
2022/06/05 04:19:06;;;;;;;9.32;6.60;;;;;;;17.39;100.00;98903.09;5095435;28;20052;-81
2022/06/05 04:21:35;;;;;;;9.50;6.38;;;;;;;17.40;100.00;98913.84;5102179;28;20142;-81
2022/06/05 04:24:05;;;;;;;11.70;7.93;;;;;;;17.27;100.00;98905.84;5107497;28;20071;-82
2022/06/05 04:26:33;;;;;;;11.60;7.38;;;;;;;17.29;100.00;98926.50;5090833;28;20292;-82
2022/06/05 04:29:00;;;;;;;7.75;6.70;;;;;;;17.28;100.00;98910.25;5108283;28;20054;-83
2022/06/05 04:31:29;;;;;;;8.88;7.95;;;;;;;17.30;100.00;98905.38;5108163;28;20055;-81
2022/06/05 04:33:57;;;;;;;11.05;7.68;;;;;;;17.17;100.00;98892.66;5105534;28;20571;-83
2022/06/05 04:36:25;;;;;;;11.07;7.90;;;;;;;17.21;100.00;98888.38;5100657;28;20106;-81
2022/06/05 04:38:51;;;;;;;10.07;8.57;;;;;;;17.36;100.00;98887.09;5105803;28;20058;-81
2022/06/05 04:41:21;;;;;;;11.00;8.02;;;;;;;17.26;100.00;98868.44;5102092;28;20061;-80
2022/06/05 04:43:48;;;;;;;11.65;8.63;;;;;;;16.78;100.00;98807.88;5104001;28;20075;-80
2022/06/05 04:46:14;;;;;;;10.70;8.65;;;;;;;16.60;100.00;98800.53;5112440;28;20051;-78
2022/06/05 04:48:41;;;;;;;10.43;9.18;;;;;;;16.71;100.00;98809.91;5106844;28;20052;-80
2022/06/05 04:51:12;;;;;;;11.38;9.43;;;;;;;16.68;100.00;98810.38;5111016;28;20043;-80
2022/06/05 04:53:40;;;;;;;13.70;9.88;;;;;;;16.70;100.00;98812.88;5097357;28;20083;-79
2022/06/05 04:56:08;;;;;;;16.05;9.05;;;;;;;16.57;100.00;98813.88;5109844;28;20043;-81
2022/06/05 04:58:36;;;;;;;10.32;9.02;;;;;;;16.67;100.00;98843.53;5110907;28;20059;-82
2022/06/05 05:01:10;;;;;;;17.25;9.77;;;;;;;16.89;100.00;98901.53;5107866;28;20530;-81
2022/06/05 05:03:37;;;;;;;11.45;9.52;;;;;;;16.81;100.00;98894.41;5099068;28;20537;-81
2022/06/05 05:06:04;;;;;;;13.98;9.00;;;;;;;16.87;100.00;98903.66;5109176;28;20079;-81
2022/06/05 05:08:30;;;;;;;13.73;9.60;;;;;;;16.65;100.00;98906.88;5099789;28;20043;-80
2022/06/05 05:10:57;;;;;;;12.95;9.77;;;;;;;16.77;100.00;98917.91;5097300;28;20050;-81
2022/06/05 05:13:24;;;;;;;15.10;10.05;;;;;;;16.83;100.00;98938.09;5102191;28;20048;-82
2022/06/05 05:15:54;;;;;;;17.50;9.68;;;;;;;16.83;100.00;98958.19;5111007;28;20059;-84
2022/06/05 05:18:21;;;;;;;14.45;9.82;;;;;;;16.69;100.00;98962.16;5104915;28;20494;-84
2022/06/05 05:20:48;;;;;;;12.60;9.05;;;;;;;16.70;100.00;98977.56;5111295;28;20071;-85
2022/06/05 05:23:15;;;;;;;14.40;9.55;;;;;;;16.66;100.00;98979.06;5093913;28;20568;-83
2022/06/05 05:25:41;;;;;;;10.65;9.55;;;;;;;16.68;100.00;98994.25;5100501;28;20059;-84
2022/06/05 05:28:08;;;;;;;12.10;9.65;;;;;;;16.69;100.00;99009.63;5102062;28;20135;-84
2022/06/05 05:30:38;;;;;;;13.45;10.35;;;;;;;16.65;100.00;99005.69;5111517;28;20047;-84
2022/06/05 05:33:06;;;;;;;;;;;;;;;16.72;100.00;99025.66;5112793;28;20687;-84
2022/06/05 05:35:34;;;;;;;12.20;9.77;;;;;;;16.61;100.00;99013.53;5107512;28;19935;-85
2022/06/05 05:38:00;;;;;;;12.60;9.60;;;;;;;16.70;100.00;99030.53;5107622;28;20131;-84
2022/06/05 05:43:11;;;;;;;14.02;10.05;;;;;;;16.69;100.00;99003.31;5106144;28;20125;-83
2022/06/05 05:45:37;;;;;;;11.73;10.40;;;;;;;16.67;100.00;99002.72;5104479;28;20062;-83
2022/06/05 05:48:06;;;;;;;13.18;10.82;;;;;;;16.46;100.00;98974.66;5108907;28;20065;-83
2022/06/05 05:50:32;;;;;;;15.80;10.32;;;;;;;16.66;100.00;98984.56;5097682;28;20678;-83
2022/06/05 05:52:59;;;;;;;15.07;11.07;;;;;;;16.28;100.00;98954.34;5107983;28;20471;-81
2022/06/05 05:55:25;;;;;;;13.57;11.25;;;;;;;15.88;100.00;98897.22;5108539;28;20070;-80
2022/06/05 05:57:52;;;;;;;16.27;12.63;;;;;;;15.87;100.00;98887.28;5109694;28;20055;-80
2022/06/05 06:00:20;;;;;;;16.80;12.23;;;;;;;16.02;100.00;98873.22;5101972;28;20365;-80
2022/06/05 06:02:46;;;;;;;18.73;12.00;;;;;;;15.98;100.00;98858.28;5112314;28;20514;-78
2022/06/05 06:05:17;;;;;;;14.73;12.23;;;;;;;15.83;100.00;98790.13;5099191;28;20495;-77
2022/06/05 06:07:44;;;;;;;16.15;12.18;;;;;;;15.80;100.00;98781.53;5102179;28;20158;-78
2022/06/05 06:10:13;;;;;;;15.95;11.48;;;;;;;15.84;100.00;98796.47;5105507;28;20047;-78
2022/06/05 06:12:40;;;;;;;15.95;11.60;;;;;;;15.79;100.00;98790.81;5108490;28;20774;-78
2022/06/05 06:15:09;;;;;;;13.38;11.98;;;;;;;15.82;100.00;98846.03;5100607;28;20052;-77
2022/06/05 06:17:36;;;;;;;16.20;11.43;;;;;;;15.82;100.00;98905.47;5108412;28;20048;-78
2022/06/05 06:20:02;;;;;;;16.23;11.98;;;;;;;15.88;100.00;98941.06;5094285;28;20050;-78
2022/06/05 06:22:30;;;;;;;20.23;14.68;;;;;;;15.84;100.00;98945.31;5104069;28;20330;-78
2022/06/05 06:24:57;;;;;;;15.38;13.10;;;;;;;15.78;100.00;98923.44;5105888;28;20052;-77
2022/06/05 06:27:23;;;;;;;18.27;13.48;;;;;;;15.72;100.00;98923.25;5100439;28;20043;-77
2022/06/05 06:29:50;;;;;;;16.92;13.90;;;;;;;15.91;100.00;98937.88;5109242;28;20055;-78
2022/06/05 06:32:16;;;;;;;19.08;14.55;;;;;;;15.89;100.00;98926.28;5107276;28;20059;-77
2022/06/05 06:34:43;;;;;;;16.90;13.77;;;;;;;16.00;100.00;98923.84;5103475;28;20056;-78
2022/06/05 06:37:09;;;;;;;18.50;13.57;;;;;;;16.17;100.00;98951.53;5102972;28;20070;-78
2022/06/05 06:39:37;;;;;;;19.30;13.48;;;;;;;15.99;100.00;98955.94;5103730;28;20052;-78
2022/06/05 06:42:04;;;;;;;16.23;12.82;;;;;;;15.99;100.00;98935.88;5102905;28;20040;-78
2022/06/05 06:44:31;;;;;;;15.93;12.38;;;;;;;15.96;100.00;98936.34;5104004;28;20426;-78
2022/06/05 06:46:58;;;;;;;14.93;12.13;;;;;;;15.85;100.00;98886.69;5099148;28;20044;-78
2022/06/05 06:49:24;;;;;;;18.25;12.60;;;;;;;16.02;100.00;98873.22;5092506;28;20047;-78
2022/06/05 06:51:51;;;;;;;14.82;12.70;;;;;;;15.84;100.00;98852.13;5107451;28;20046;-77
2022/06/05 06:54:17;;;;;;;13.65;11.30;;;;;;;16.03;100.00;98869.44;5106284;28;20047;-77
2022/06/05 06:56:45;;;;;;;16.67;12.38;;;;;;;16.03;100.00;98825.56;5094631;28;20048;-77
2022/06/05 06:59:14;;;;;;;15.32;11.30;;;;;;;15.83;100.00;98779.16;5100915;28;20055;-78
2022/06/05 07:01:41;;;;;;;14.95;11.65;;;;;;;15.97;100.00;98809.19;5095335;28;20474;-76
2022/06/05 07:04:08;;;;;;;14.25;11.50;;;;;;;16.04;100.00;98802.53;5107324;28;20494;-76
2022/06/05 07:06:34;;;;;;;13.75;10.82;;;;;;;16.07;100.00;98780.16;5109093;28;20055;-79
2022/06/05 07:09:01;;;;;;;14.27;9.95;;;;;;;15.91;100.00;98732.28;5110215;28;20048;-79
2022/06/05 07:11:27;;;;;;;14.75;9.40;;;;;;;16.12;100.00;98759.44;5092462;28;20064;-78
2022/06/05 07:13:56;;;;;;;10.98;8.82;;;;;;;16.10;100.00;98724.84;5107372;28;20043;-78
2022/06/05 07:16:23;;;;;;;11.32;7.53;;;;;;;16.26;100.00;98728.03;5099816;28;20043;-77
2022/06/05 07:18:50;;;;;;;8.70;6.80;;;;;;;16.30;100.00;98709.19;5107225;28;20043;-81
2022/06/05 07:21:18;;;;;;;9.50;6.93;;;;;;;16.43;100.00;98720.78;5105901;28;20062;-79
2022/06/05 07:23:45;;;;;;;7.90;6.45;;;;;;;16.24;100.00;98686.25;5106751;28;20054;-78
2022/06/05 07:26:13;;;;;;;12.65;6.50;;;;;;;16.32;100.00;98694.19;5104028;28;20130;-81
2022/06/05 07:28:40;;;;;;;8.05;7.03;;;;;;;16.12;100.00;98678.00;5102049;28;20314;-81
2022/06/05 07:31:09;;;;;;;10.82;6.95;;;;;;;16.25;100.00;98675.06;5098583;28;20044;-79
2022/06/05 07:33:38;;;;;;;9.98;6.65;;;;;;;16.28;100.00;98690.22;5093163;28;20112;-78
2022/06/05 07:36:08;;;;;;;9.48;6.00;;;;;;;16.31;100.00;98675.22;5098385;28;20063;-80
2022/06/05 07:38:36;;;;;;;7.18;5.53;;;;;;;16.13;100.00;98648.69;5106917;28;20479;-80
2022/06/05 07:41:02;;;;;;;9.48;5.30;;;;;;;16.34;100.00;98669.25;5103411;28;20043;-80
2022/06/05 07:43:29;;;;;;;7.38;5.68;;;;;;;16.26;100.00;98630.13;5094712;28;20055;-79
2022/06/05 07:45:56;;;;;;;9.02;5.40;;;;;;;16.24;100.00;98591.13;5107155;28;20066;-79
2022/06/05 07:48:32;;;;;;;5.35;4.60;;;;;;;16.23;100.00;98578.47;5100136;28;20071;-80
2022/06/05 07:56:31;;;;;;;7.82;3.17;;;;;;;16.33;100.00;98566.91;5093946;28;20096;-79
2022/06/05 07:58:57;;;;;;;7.93;3.58;;;;;;;16.16;100.00;98585.97;5099287;28;20048;-79
2022/06/05 08:01:24;;;;;;;3.88;3.08;;;;;;;16.38;100.00;98659.47;5099298;28;20180;-77
2022/06/05 08:03:52;;;;;;;4.53;3.38;;;;;;;16.39;100.00;98678.44;5102284;28;20062;-77
2022/06/05 08:06:19;;;;;;;6.20;4.25;;;;;;;16.16;100.00;98664.66;5094653;28;20415;-77
2022/06/05 08:08:46;;;;;;;9.07;4.90;;;;;;;16.28;100.00;98704.75;5103185;28;20059;-77
2022/06/05 08:11:15;;;;;;;7.28;4.10;;;;;;;16.43;100.00;98681.56;5109921;28;20051;-78
2022/06/05 08:13:42;;;;;;;9.68;3.35;;;;;;;16.32;100.00;98649.44;5107498;28;20126;-78
2022/06/05 08:16:09;;;;;;;4.03;2.90;;;;;;;16.38;100.00;98667.69;5098223;28;20470;-77
2022/06/05 08:18:35;;;;;;;5.93;2.70;;;;;;;16.56;100.00;98702.44;5110583;28;20058;-77
2022/06/05 08:21:04;;;;;;;7.75;3.30;;;;;;;16.42;100.00;98699.09;5098167;28;20389;-78
2022/06/05 08:23:30;;;;;;;5.60;3.00;;;;;;;16.58;100.00;98679.19;5101859;28;20056;-78
2022/06/05 08:25:57;;;;;;;4.45;2.67;;;;;;;16.51;100.00;98662.00;5103094;28;20044;-77
2022/06/05 08:28:25;;;;;;;6.85;2.47;;;;;;;16.89;100.00;98687.38;5094539;28;20048;-78
2022/06/05 08:30:51;;;;;;;7.70;2.95;;;;;;;17.00;100.00;98681.06;5103511;28;20498;-78
2022/06/05 08:33:18;;;;;;;4.93;4.13;;;;;;;17.00;100.00;98670.09;5101524;28;20059;-78
2022/06/05 08:35:45;;;;;;;4.00;2.88;;;;;;;17.07;100.00;98668.06;5107858;28;20453;-79
2022/06/05 08:43:56;;;;;;;3.50;2.85;;;;;;;17.76;100.00;98716.81;5102372;28;20169;-79
2022/06/05 08:46:27;;;;;;;8.23;3.90;;;;;;;17.82;100.00;98696.56;5094238;28;20052;-79
2022/06/05 08:48:57;;;;;;;4.82;3.35;;;;;;;18.04;100.00;98704.22;5095339;28;20052;-79
2022/06/05 08:51:35;;;;;;;4.65;2.88;;;;;;;18.29;100.00;98708.53;5105916;28;20051;-80
2022/06/05 08:54:07;;;;;;;4.55;3.03;;;;;;;18.28;100.00;98688.44;5104037;28;20051;-81
2022/06/05 08:56:38;;;;;;;6.70;3.92;;;;;;;18.53;100.00;98698.22;5099788;28;20672;-80
2022/06/05 08:59:11;;;;;;;4.63;2.80;;;;;;;18.57;100.00;98691.97;5090714;28;20052;-81
2022/06/05 09:01:41;;;;;;;4.97;3.33;;;;;;;18.92;100.00;98699.22;5106669;28;20062;-82
2022/06/05 09:04:33;;;;;;;6.43;2.95;;;;;;;19.19;100.00;98711.44;5099543;28;20293;-83
2022/06/05 09:07:05;;;;;;;5.68;2.97;;;;;;;19.33;100.00;98690.72;5107556;28;20468;-84
2022/06/05 09:09:41;;;;;;;4.43;3.33;;;;;;;19.43;100.00;98706.56;5101721;28;20051;-83
2022/06/05 09:12:13;;;;;;;4.20;2.80;;;;;;;19.49;100.00;98694.50;5103262;28;20494;-83
2022/06/05 09:14:46;;;;;;;3.83;2.72;;;;;;;19.50;100.00;98706.41;5093932;28;20047;-82
2022/06/05 09:17:16;;;;;;;4.93;2.50;;;;;;;19.42;100.00;98715.91;5105717;28;20502;-83
2022/06/05 09:19:44;;;;;;;6.07;2.78;;;;;;;19.35;100.00;98727.13;5110803;28;20047;-83
2022/06/05 09:22:16;;;;;;;5.78;2.72;;;;;;;19.48;100.00;98725.09;5101992;28;20043;-84
2022/06/05 09:25:15;;;;;;;4.70;2.92;;;;;;;19.57;100.00;98702.34;5105699;28;20100;-84
2022/06/05 09:27:59;;;;;;;4.97;2.47;;;;;;;19.68;100.00;98708.00;5091033;28;20055;-84
2022/06/05 09:30:32;;;;;;;3.65;1.90;;;;;;;19.56;100.00;98713.66;5091211;28;20044;-84
2022/06/05 09:33:09;;;;;;;4.43;2.08;;;;;;;19.70;100.00;98714.09;5091019;28;20044;-82
2022/06/05 09:35:41;;;;;;;3.35;2.00;;;;;;;19.70;100.00;98700.31;5097635;28;20074;-81
2022/06/05 09:38:17;;;;;;;3.65;1.90;;;;;;;19.80;100.00;98703.22;5114964;27;20051;-81
2022/06/05 09:40:56;;;;;;;2.53;1.88;;;;;;;20.24;100.00;98729.97;5111564;28;20058;-81
2022/06/05 09:43:43;;;;;;;6.15;1.75;;;;;;;20.48;100.00;98734.06;5103219;28;20043;-79
2022/06/05 09:46:24;;;;;;;2.45;1.90;;;;;;;21.11;100.00;98752.91;5113309;28;20507;-80
2022/06/05 09:48:57;;;;;;;7.45;2.10;;;;;;;21.24;100.00;98745.25;5113059;28;21189;-79
2022/06/05 09:51:25;;;;;;;8.05;1.60;;;;;;;21.14;100.00;98716.44;5103994;28;20047;-80
2022/06/05 09:53:57;;;;;;;3.03;1.75;;;;;;;21.25;100.00;98725.66;5104492;27;20047;-79
2022/06/05 09:58:24;;;;;;;6.35;2.10;;;;;;;21.55;100.00;98749.09;5102037;28;20047;-81
2022/06/05 09:59:30;;;;;;;1.90;1.63;;;;;;;21.94;100.00;98773.66;5091114;28;20113;-81
2022/06/05 10:01:59;;;;;;;2.50;1.52;;;;;;;21.86;100.00;98768.63;5106136;28;20051;-81
2022/06/05 10:04:28;;;;;;;;;;;;;;;21.61;100.00;98775.69;5100672;28;20086;-81
2022/06/05 10:07:02;;;;;;;4.90;1.40;;;;;;;21.84;100.00;98782.72;5105003;28;19923;-82
2022/06/05 10:09:30;;;;;;;3.30;1.48;;;;;;;21.77;100.00;98775.78;5103718;28;20430;-82
2022/06/05 10:12:01;;;;;;;2.13;1.45;;;;;;;21.64;100.00;98782.63;5109754;27;20112;-82
2022/06/05 10:14:44;;;;;;;4.15;1.30;;;;;;;21.58;100.00;98783.69;5108406;28;20046;-81
2022/06/05 10:17:40;;;;;;;2.47;1.38;;;;;;;21.77;100.00;98798.75;5094613;27;20044;-81
2022/06/05 10:20:34;;;;;;;5.60;1.90;;;;;;;22.16;100.00;98797.56;5106597;28;20058;-82
2022/06/05 10:23:11;;;;;;;2.92;1.38;;;;;;;22.22;100.00;98782.63;5088453;28;20059;-83
2022/06/05 10:25:44;;;;;;;4.25;1.30;;;;;;;22.42;100.00;98804.06;5108264;27;20060;-83
2022/06/05 10:28:18;;;;;;;4.20;1.55;;;;;;;22.18;100.00;98790.66;5109073;28;20131;-83
2022/06/05 10:30:56;;;;;;;2.90;1.50;;;;;;;22.59;97.00;98823.22;5109861;28;20075;-84
2022/06/05 10:33:33;;;;;;;2.25;1.40;;;;;;;22.87;94.86;98826.63;5107108;28;21807;-84
2022/06/05 10:36:07;;;;;;;3.95;1.20;;;;;;;23.24;96.00;98812.56;5098896;28;20486;-84
2022/06/05 10:38:42;;;;;;;5.07;1.20;;;;;;;23.55;96.88;98786.75;5109586;28;20040;-85
2022/06/05 10:41:20;;;;;;;1.73;1.20;;;;;;;24.17;93.73;98813.25;5087601;28;20058;-84
2022/06/05 10:44:06;;;;;;;3.17;1.27;;;;;;;23.91;90.10;98783.91;5107161;28;20705;-85
2022/06/05 10:46:37;;;;;;;3.35;1.08;;;;;;;23.92;94.26;98777.25;5106095;28;20054;-86
2022/06/05 10:49:13;;;;;;;1.40;1.20;;;;;;;23.57;85.78;98792.84;5110125;28;20131;-85
2022/06/05 10:51:49;;;;;;;2.50;1.27;;;;;;;23.31;89.98;98795.66;5106536;28;20051;-87
2022/06/05 10:54:34;;;;;;;3.83;1.42;;;;;;;23.07;93.28;98793.38;5105613;28;20043;-85
2022/06/05 10:57:06;;;;;;;3.05;1.20;;;;;;;22.73;94.65;98799.47;5103596;28;20049;-87
2022/06/05 10:59:44;;;;;;;2.03;1.25;;;;;;;22.52;98.07;98775.56;5103595;28;20047;-87
2022/06/05 11:02:33;;;;;;;2.47;1.10;;;;;;;22.54;98.28;98779.72;5103860;28;20052;-87
2022/06/05 11:05:16;;;;;;;4.90;1.20;;;;;;;22.40;100.00;98778.56;5100260;28;20711;-87
2022/06/05 11:07:55;;;;;;;4.60;1.50;;;;;;;22.52;100.00;98765.34;5103809;28;20040;-87
2022/06/05 11:13:42;;;;;;;3.28;1.42;;;;;;;22.38;100.00;98766.94;5099925;28;20059;-87
2022/06/05 11:16:30;;;;;;;2.65;1.20;;;;;;;22.37;100.00;98749.50;5092204;28;20079;-87
2022/06/05 11:19:09;;;;;;;5.18;1.38;;;;;;;22.25;100.00;98744.19;5090984;28;20066;-89
2022/06/05 11:21:37;;;;;;;3.60;1.42;;;;;;;22.19;100.00;98749.94;5090802;28;20122;-88
2022/06/05 11:24:11;;;;;;;7.78;1.90;;;;;;;22.19;100.00;98747.19;5090134;28;20036;-87
2022/06/05 11:26:47;;;;;;;4.40;1.40;;;;;;;22.12;100.00;98749.41;5107059;28;20071;-87
2022/06/05 11:29:24;;;;;;;2.00;1.30;;;;;;;22.02;100.00;98745.47;5110978;28;20051;-89
2022/06/05 11:32:22;;;;;;;5.47;1.33;;;;;;;21.82;100.00;98734.31;5111513;28;20075;-88
2022/06/05 11:34:58;;;;;;;5.32;1.50;;;;;;;21.88;100.00;98734.06;5111527;28;20060;-87
2022/06/05 11:37:44;;;;;;;3.00;2.10;;;;;;;22.01;100.00;98746.59;5110785;28;20139;-87
2022/06/05 11:40:21;;;;;;;2.72;1.45;;;;;;;21.99;100.00;98723.03;5109977;28;20443;-87
2022/06/05 11:42:56;;;;;;;2.85;1.23;;;;;;;21.98;100.00;98726.91;5109708;28;20044;-87
2022/06/05 11:45:47;;;;;;;6.45;1.77;;;;;;;21.89;100.00;98721.06;5109479;28;20092;-87
2022/06/05 11:48:25;;;;;;;1.30;1.20;;;;;;;21.72;100.00;98744.25;5110801;28;20092;-87
2022/06/05 11:51:06;;;;;;;5.88;1.50;;;;;;;21.62;100.00;98776.50;5110590;28;20047;-87
2022/06/05 11:53:43;;;;;;;5.57;1.77;;;;;;;21.67;100.00;98776.56;5108297;28;20042;-88
2022/06/05 11:56:25;;;;;;;4.43;1.25;;;;;;;21.48;100.00;98788.03;5106487;28;20047;-88
2022/06/05 11:59:00;;;;;;;3.17;1.40;;;;;;;21.65;100.00;98789.81;5106505;28;20043;-87
2022/06/05 12:01:32;;;;;;;3.58;1.30;;;;;;;21.70;100.00;98759.44;5110052;28;20058;-87